createdAt,value
2017-09-29T00:01:40.152Z,96.80
2017-09-29T00:04:10.807Z,97.10
2017-09-29T00:06:41.359Z,97.30
2017-09-29T00:09:12.618Z,97.00
2017-09-29T00:11:43.569Z,97.00
2017-09-29T00:14:15.117Z,97.10
2017-09-29T00:16:46.054Z,97.20
2017-09-29T00:19:17.062Z,96.90
2017-09-29T00:21:48.026Z,96.70
2017-09-29T00:24:18.936Z,96.90
2017-09-29T00:26:49.732Z,96.60
2017-09-29T00:29:21.237Z,97.30
2017-09-29T00:31:51.949Z,97.00
2017-09-29T00:34:23.431Z,97.10
2017-09-29T00:36:54.381Z,97.20
2017-09-29T00:39:25.370Z,97.50
2017-09-29T00:41:56.204Z,97.50
2017-09-29T00:44:27.152Z,97.40
2017-09-29T00:46:59.111Z,97.20
2017-09-29T00:49:30.558Z,97.20
2017-09-29T00:52:02.761Z,97.30
2017-09-29T00:54:33.896Z,97.30
2017-09-29T00:57:05.177Z,97.30
2017-09-29T00:59:36.011Z,97.20
2017-09-29T01:02:06.784Z,97.10
2017-09-29T01:04:37.964Z,97.10
2017-09-29T01:07:09.119Z,97.10
2017-09-29T01:09:39.978Z,97.00
2017-09-29T01:12:11.850Z,97.00
2017-09-29T01:14:42.742Z,97.10
2017-09-29T01:17:13.390Z,97.00
2017-09-29T01:19:44.306Z,97.10
2017-09-29T01:22:15.452Z,97.00
2017-09-29T01:24:46.167Z,97.00
2017-09-29T01:27:16.890Z,97.00
2017-09-29T01:29:47.959Z,96.90
2017-09-29T01:32:18.738Z,97.00
2017-09-29T01:34:50.490Z,97.20
2017-09-29T01:37:21.079Z,97.20
2017-09-29T01:39:51.864Z,97.30
2017-09-29T01:42:23.397Z,97.40
2017-09-29T01:44:55.194Z,97.20
2017-09-29T01:47:25.839Z,97.40
2017-09-29T01:49:57.365Z,97.60
2017-09-29T01:52:28.654Z,97.60
2017-09-29T01:55:00.455Z,97.60
2017-09-29T01:57:32.116Z,97.70
2017-09-29T02:00:03.804Z,97.80
2017-09-29T02:02:34.928Z,97.80
2017-09-29T02:05:06.197Z,97.80
2017-09-29T02:07:37.471Z,97.80
2017-09-29T02:10:08.524Z,97.90
2017-09-29T02:12:39.513Z,97.80
2017-09-29T02:15:10.966Z,97.90
2017-09-29T02:17:41.567Z,97.90
2017-09-29T02:20:13.781Z,97.80
2017-09-29T02:22:44.829Z,97.50
2017-09-29T02:25:16.094Z,97.50
2017-09-29T02:27:46.981Z,97.60
2017-09-29T02:30:18.024Z,97.80
2017-09-29T02:32:48.904Z,97.80
2017-09-29T02:35:19.637Z,97.80
2017-09-29T02:37:50.836Z,97.80
2017-09-29T02:40:21.405Z,97.90
2017-09-29T02:42:52.027Z,97.70
2017-09-29T02:45:23.289Z,97.70
2017-09-29T02:47:54.412Z,97.60
2017-09-29T02:50:25.852Z,97.70
2017-09-29T02:52:56.825Z,97.80
2017-09-29T02:55:28.133Z,97.90
2017-09-29T02:58:02.033Z,97.80
2017-09-29T03:00:37.565Z,97.70
2017-09-29T03:03:15.567Z,97.70
2017-09-29T03:05:51.875Z,97.60
2017-09-29T03:08:22.887Z,97.60
2017-09-29T03:10:53.626Z,97.70
2017-09-29T03:13:24.176Z,97.80
2017-09-29T03:15:55.220Z,97.80
2017-09-29T03:18:26.672Z,97.80
2017-09-29T03:20:58.024Z,97.90
2017-09-29T03:23:29.993Z,98.00
2017-09-29T03:26:00.996Z,98.00
2017-09-29T03:28:32.263Z,98.10
2017-09-29T03:31:02.953Z,98.10
2017-09-29T03:33:34.676Z,98.30
2017-09-29T03:36:06.507Z,98.40
2017-09-29T03:38:37.388Z,98.40
2017-09-29T03:41:09.320Z,98.40
2017-09-29T03:43:40.582Z,98.40
2017-09-29T03:46:11.756Z,98.40
2017-09-29T03:48:43.733Z,98.30
2017-09-29T03:51:17.574Z,98.30
2017-09-29T03:53:53.064Z,98.10
2017-09-29T03:56:33.575Z,98.10
2017-09-29T03:59:09.072Z,98.00
2017-09-29T04:01:40.571Z,98.10
2017-09-29T04:04:11.058Z,98.10
2017-09-29T04:06:41.992Z,98.20
2017-09-29T04:09:12.794Z,97.90
2017-09-29T04:11:43.678Z,97.90
2017-09-29T04:14:16.095Z,98.00
2017-09-29T04:16:46.974Z,98.00
2017-09-29T04:19:17.755Z,98.00
2017-09-29T04:21:48.492Z,98.00
2017-09-29T04:24:19.535Z,97.90
2017-09-29T07:24:48.089Z,92.50
2017-09-29T07:27:23.527Z,92.70
2017-09-29T07:29:57.303Z,92.60
2017-09-29T07:32:32.980Z,91.90
2017-09-29T07:35:04.854Z,90.20
2017-09-29T07:37:35.816Z,90.20
2017-09-29T07:40:06.782Z,86.70
2017-09-29T07:42:37.716Z,83.90
2017-09-29T07:45:09.050Z,81.60
2017-09-29T07:47:40.509Z,77.90
2017-09-29T07:50:12.204Z,77.20
2017-09-29T07:52:43.099Z,77.20
2017-09-29T07:55:14.767Z,77.60
2017-09-29T07:57:45.725Z,77.50
2017-09-29T08:00:16.511Z,77.40
2017-09-29T08:02:48.234Z,74.00
2017-09-29T08:05:19.172Z,73.90
2017-09-29T08:07:50.011Z,69.20
2017-09-29T08:10:20.638Z,69.20
2017-09-29T08:12:53.020Z,74.60
2017-09-29T08:15:24.473Z,74.50
2017-09-29T08:17:55.439Z,76.10
2017-09-29T08:20:26.305Z,75.60
2017-09-29T08:22:58.130Z,68.70
2017-09-29T08:25:29.087Z,68.60
2017-09-29T08:30:33.396Z,64.80
2017-09-29T08:33:04.900Z,65.80
2017-09-29T08:35:36.908Z,77.10
2017-09-29T08:38:07.835Z,76.50
2017-09-29T08:40:39.509Z,71.20
2017-09-29T08:43:10.184Z,71.10
2017-09-29T08:45:42.041Z,66.90
2017-09-29T08:48:12.989Z,63.90
2017-09-29T08:50:44.318Z,63.30
2017-09-29T08:53:15.326Z,64.20
2017-09-29T08:55:46.460Z,64.80
2017-09-29T08:58:18.426Z,63.10
2017-09-29T09:03:21.876Z,60.00
2017-09-29T09:05:52.697Z,60.40
2017-09-29T09:08:24.728Z,65.80
2017-09-29T09:10:56.275Z,68.90
2017-09-29T09:13:28.710Z,68.90
2017-09-29T09:16:00.094Z,68.50
2017-09-29T09:18:30.952Z,69.10
2017-09-29T09:21:02.986Z,67.10
2017-09-29T09:23:33.665Z,67.10
2017-09-29T09:26:05.100Z,67.40
2017-09-29T09:28:36.391Z,66.80
2017-09-29T09:31:07.430Z,66.80
2017-09-29T09:33:38.507Z,65.00
2017-09-29T09:36:10.580Z,63.40
2017-09-29T09:38:41.409Z,63.40
2017-09-29T09:41:12.543Z,61.00
2017-09-29T09:43:43.335Z,59.50
2017-09-29T09:46:14.271Z,58.50
2017-09-29T09:48:45.226Z,60.30
2017-09-29T09:51:16.105Z,61.90
2017-09-29T09:53:47.545Z,64.80
2017-09-29T09:56:18.018Z,63.70
2017-09-29T09:58:48.891Z,64.80
2017-09-29T10:01:20.421Z,68.80
2017-09-29T10:03:51.427Z,68.70
2017-09-29T10:06:22.116Z,67.30
2017-09-29T10:08:52.789Z,67.40
2017-09-29T10:11:26.105Z,66.50
2017-09-29T10:13:57.219Z,68.10
2017-09-29T10:16:27.785Z,68.10
2017-09-29T10:18:59.331Z,64.20
2017-09-29T10:21:31.305Z,63.00
2017-09-29T10:24:02.469Z,62.50
2017-09-29T10:26:33.404Z,63.90
2017-09-29T10:29:04.708Z,64.10
2017-09-29T10:31:36.270Z,63.20
2017-09-29T10:34:07.789Z,63.50
2017-09-29T10:36:38.538Z,63.00
2017-09-29T10:39:09.346Z,62.90
2017-09-29T10:41:40.086Z,62.00
2017-09-29T10:44:10.762Z,62.00
2017-09-29T10:46:41.469Z,61.60
2017-09-29T10:49:12.643Z,62.60
2017-09-29T10:51:43.089Z,62.20
2017-09-29T10:54:13.587Z,65.00
2017-09-29T10:56:44.368Z,64.10
2017-09-29T10:59:15.050Z,62.30
2017-09-29T11:01:47.041Z,62.40
2017-09-29T11:04:18.313Z,62.50
2017-09-29T11:06:49.371Z,62.90
2017-09-29T11:09:20.242Z,61.70
2017-09-29T11:11:52.375Z,61.00
2017-09-29T11:14:23.240Z,61.50
2017-09-29T11:16:54.682Z,62.40
2017-09-29T11:19:26.077Z,61.70
2017-09-29T11:21:58.410Z,66.80
2017-09-29T11:24:31.440Z,67.70
2017-09-29T11:27:02.489Z,67.70
2017-09-29T11:29:34.163Z,67.00
2017-09-29T11:32:05.492Z,65.20
2017-09-29T11:34:37.314Z,65.20
2017-09-29T11:37:08.269Z,65.20
2017-09-29T11:39:40.030Z,66.20
2017-09-29T11:42:11.085Z,67.70
2017-09-29T11:44:42.005Z,66.80
2017-09-29T11:47:12.808Z,67.80
2017-09-29T11:49:43.800Z,68.60
2017-09-29T11:52:14.836Z,67.70
2017-09-29T11:54:46.043Z,66.30
2017-09-29T11:57:16.977Z,65.60
2017-09-29T11:59:48.550Z,65.70
2017-09-29T12:02:20.548Z,64.50
2017-09-29T12:04:51.905Z,64.40
2017-09-29T12:07:22.386Z,63.00
2017-09-29T12:09:53.222Z,66.20
2017-09-29T12:12:25.510Z,66.60
2017-09-29T12:14:56.345Z,66.60
2017-09-29T12:17:27.982Z,67.40
2017-09-29T12:19:59.645Z,64.80
2017-09-29T12:22:30.814Z,64.80
2017-09-29T12:25:02.144Z,64.00
2017-09-29T12:27:34.099Z,62.90
2017-09-29T12:30:05.331Z,62.90
2017-09-29T12:32:37.096Z,67.50
2017-09-29T12:35:08.806Z,67.50
2017-09-29T12:37:39.757Z,68.30
2017-09-29T12:40:10.611Z,68.00
2017-09-29T12:42:42.803Z,63.80
2017-09-29T12:47:43.410Z,64.00
2017-09-29T12:50:15.983Z,64.30
2017-09-29T12:52:47.874Z,64.90
2017-09-29T12:55:18.444Z,62.90
2017-09-29T12:57:49.339Z,62.40
2017-09-29T13:00:20.357Z,64.60
2017-09-29T13:02:52.296Z,63.80
2017-09-29T13:05:24.650Z,62.10
2017-09-29T13:07:55.858Z,62.70
2017-09-29T13:10:27.675Z,64.90
2017-09-29T13:12:58.458Z,64.90
2017-09-29T13:15:29.752Z,64.10
2017-09-29T13:18:01.101Z,65.20
2017-09-29T13:20:31.782Z,65.90
2017-09-29T13:23:03.221Z,66.30
2017-09-29T13:25:34.016Z,65.90
2017-09-29T13:28:04.919Z,64.60
2017-09-29T13:30:36.651Z,65.40
2017-09-29T13:33:08.398Z,66.20
2017-09-29T13:35:39.322Z,66.10
2017-09-29T13:38:11.829Z,65.90
2017-09-29T13:40:42.989Z,66.40
2017-09-29T13:43:13.608Z,65.60
2017-09-29T13:45:44.650Z,63.00
2017-09-29T13:48:17.012Z,61.00
2017-09-29T13:50:48.277Z,60.30
2017-09-29T13:53:19.500Z,60.30
2017-09-29T13:55:50.694Z,62.90
2017-09-29T13:58:21.465Z,62.50
2017-09-29T14:00:53.250Z,66.70
2017-09-29T14:03:24.760Z,68.20
2017-09-29T14:05:55.842Z,68.10
2017-09-29T14:08:26.886Z,69.50
2017-09-29T14:10:58.711Z,66.80
2017-09-29T14:13:29.450Z,66.90
2017-09-29T14:16:01.960Z,68.30
2017-09-29T14:18:33.979Z,68.70
2017-09-29T14:21:05.029Z,68.70
2017-09-29T14:23:35.895Z,69.50
2017-09-29T14:26:07.651Z,69.00
2017-09-29T14:28:38.685Z,69.00
2017-09-29T14:31:09.806Z,67.70
2017-09-29T14:33:40.665Z,68.70
2017-09-29T14:36:12.181Z,65.80
2017-09-29T14:38:43.401Z,65.80
2017-09-29T14:41:15.216Z,68.70
2017-09-29T14:43:45.874Z,68.80
2017-09-29T14:46:16.849Z,70.30
2017-09-29T14:48:47.855Z,71.20
2017-09-29T14:51:19.239Z,70.90
2017-09-29T14:53:50.634Z,71.60
2017-09-29T14:56:21.700Z,71.60
2017-09-29T14:58:53.569Z,73.30
2017-09-29T15:01:24.195Z,73.30
2017-09-29T15:03:55.415Z,73.70
2017-09-29T15:06:26.725Z,74.00
2017-09-29T15:08:58.317Z,74.70
2017-09-29T15:11:30.003Z,74.80
2017-09-29T15:14:00.736Z,74.80
2017-09-29T15:16:31.662Z,74.80
2017-09-29T15:19:02.618Z,74.30
2017-09-29T15:21:33.964Z,74.40
2017-09-29T15:24:05.483Z,74.40
2017-09-29T15:26:37.119Z,73.90
2017-09-29T15:29:09.303Z,73.60
2017-09-29T15:31:40.436Z,73.60
2017-09-29T15:34:11.800Z,73.90
2017-09-29T15:36:43.072Z,73.40
2017-09-29T15:39:14.748Z,72.70
2017-09-29T15:41:46.802Z,72.90
2017-09-29T15:44:18.446Z,72.70
2017-09-29T15:46:49.523Z,72.80
2017-09-29T15:49:20.317Z,73.10
2017-09-29T15:51:52.476Z,74.20
2017-09-29T15:54:24.241Z,74.70
2017-09-29T15:56:56.069Z,74.50
2017-09-29T15:59:28.512Z,75.30
2017-09-29T16:01:59.707Z,75.80
2017-09-29T16:04:30.811Z,75.60
2017-09-29T16:07:02.319Z,75.90
2017-09-29T16:09:33.019Z,75.90
2017-09-29T16:12:05.476Z,76.00
2017-09-29T16:14:36.605Z,75.90
2017-09-29T16:17:09.277Z,76.10
2017-09-29T16:19:41.025Z,76.60
2017-09-29T16:22:12.339Z,76.80
2017-09-29T16:24:44.299Z,76.90
2017-09-29T16:27:15.912Z,77.10
2017-09-29T16:29:48.113Z,77.00
2017-09-29T16:32:19.603Z,77.00
2017-09-29T16:34:51.102Z,77.30
2017-09-29T16:37:23.564Z,77.90
2017-09-29T16:39:56.240Z,78.10
2017-09-29T16:42:28.653Z,78.10
2017-09-29T16:44:59.773Z,78.30
2017-09-29T16:47:30.640Z,78.30
2017-09-29T16:50:01.118Z,78.80
2017-09-29T16:52:33.237Z,79.20
2017-09-29T16:55:05.195Z,79.20
2017-09-29T16:57:37.332Z,79.30
2017-09-29T17:00:08.850Z,79.40
2017-09-29T17:02:39.735Z,79.60
2017-09-29T17:05:11.063Z,80.50
2017-09-29T17:07:42.654Z,81.20
2017-09-29T17:10:14.273Z,81.20
2017-09-29T17:12:46.734Z,81.70
2017-09-29T17:15:18.560Z,81.90
2017-09-29T17:17:50.423Z,81.80
2017-09-29T17:20:22.203Z,84.70
2017-09-29T17:22:53.682Z,86.60
2017-09-29T17:25:25.403Z,88.00
2017-09-29T17:27:56.287Z,90.00
2017-09-29T17:30:27.439Z,90.80
2017-09-29T17:32:58.711Z,91.90
2017-09-29T17:35:30.284Z,92.00
2017-09-29T17:38:02.127Z,92.50
2017-09-29T17:40:33.468Z,92.40
2017-09-29T17:43:04.655Z,92.50
2017-09-29T17:45:35.445Z,92.20
2017-09-29T17:48:06.593Z,92.40
2017-09-29T17:50:37.567Z,92.40
2017-09-29T17:53:10.219Z,93.20
2017-09-29T17:55:41.681Z,93.20
2017-09-29T17:58:13.028Z,93.20
2017-09-29T18:00:44.046Z,92.50
2017-09-29T18:03:15.291Z,92.70
2017-09-29T18:05:46.523Z,93.10
2017-09-29T18:08:17.547Z,93.20
2017-09-29T18:10:48.916Z,93.30
2017-09-29T18:13:20.217Z,92.70
2017-09-29T18:15:52.889Z,91.80
2017-09-29T18:18:24.040Z,91.80
2017-09-29T18:20:55.755Z,91.60
2017-09-29T18:23:27.931Z,91.60
2017-09-29T18:25:59.274Z,91.50
2017-09-29T18:28:30.571Z,91.50
2017-09-29T18:31:01.814Z,92.10
2017-09-29T18:33:33.325Z,91.40
2017-09-29T18:36:05.018Z,91.40
2017-09-29T18:38:36.461Z,91.10
2017-09-29T18:41:09.164Z,91.20
2017-09-29T18:43:46.930Z,91.20
2017-09-29T18:46:22.462Z,91.30
2017-09-29T18:48:53.911Z,91.30
2017-09-29T18:51:25.216Z,91.20
2017-09-29T18:53:55.927Z,91.20
2017-09-29T18:56:27.729Z,90.90
2017-09-29T18:58:59.387Z,90.90
2017-09-29T19:01:30.398Z,90.80
2017-09-29T19:04:02.260Z,90.80
2017-09-29T19:06:33.653Z,90.90
2017-09-29T19:09:04.509Z,90.70
2017-09-29T19:11:36.751Z,90.90
2017-09-29T19:14:09.235Z,90.30
2017-09-29T19:16:40.530Z,90.30
2017-09-29T19:19:12.531Z,90.60
2017-09-29T19:21:43.859Z,90.30
2017-09-29T19:24:15.146Z,90.30
2017-09-29T19:26:47.253Z,90.00
2017-09-29T19:29:18.237Z,90.00
2017-09-29T19:31:48.561Z,89.70
2017-09-29T19:34:19.211Z,89.60
2017-09-29T19:36:50.578Z,89.40
2017-09-29T19:39:22.008Z,89.40
2017-09-29T19:41:54.604Z,89.20
2017-09-29T19:44:25.462Z,89.10
2017-09-29T19:46:56.399Z,89.30
2017-09-29T19:49:26.819Z,89.00
2017-09-29T19:51:57.466Z,89.00
2017-09-29T19:54:28.220Z,88.80
2017-09-29T19:56:59.187Z,89.20
2017-09-29T19:59:29.705Z,89.00
2017-09-29T20:02:00.809Z,88.90
2017-09-29T20:04:31.436Z,89.00
2017-09-29T20:07:02.463Z,89.10
2017-09-29T20:09:32.770Z,89.20
2017-09-29T20:12:03.410Z,88.90
2017-09-29T20:14:33.944Z,89.10
2017-09-29T20:17:05.035Z,89.00
2017-09-29T20:19:35.333Z,88.90
2017-09-29T20:22:06.016Z,88.90
2017-09-29T20:24:37.464Z,89.10
2017-09-29T20:27:07.643Z,89.10
2017-09-29T20:29:39.778Z,89.10
2017-09-29T20:32:11.397Z,88.90
2017-09-29T20:34:43.689Z,89.20
2017-09-29T20:37:15.495Z,89.10
2017-09-29T20:39:47.320Z,89.10
2017-09-29T20:42:18.667Z,88.90
2017-09-29T20:44:49.886Z,89.10
2017-09-29T20:47:21.453Z,89.30
2017-09-29T20:49:52.818Z,89.00
2017-09-29T20:52:23.950Z,88.90
2017-09-29T20:54:55.565Z,89.40
2017-09-29T20:57:27.632Z,89.40
2017-09-29T20:59:59.269Z,89.70
2017-09-29T21:02:29.954Z,89.30
2017-09-29T21:05:01.988Z,88.50
2017-09-29T21:07:33.145Z,89.10
2017-09-29T21:10:04.510Z,89.20
2017-09-29T21:12:35.644Z,89.40
2017-09-29T21:15:07.371Z,89.30
2017-09-29T21:17:39.501Z,89.30
2017-09-29T21:20:10.496Z,89.20
2017-09-29T21:22:42.647Z,89.00
2017-09-29T21:25:13.579Z,89.00
2017-09-29T21:27:44.934Z,88.80
2017-09-29T21:30:16.680Z,89.10
2017-09-29T21:32:47.576Z,89.20
2017-09-29T21:35:19.837Z,90.10
2017-09-29T21:37:51.948Z,90.00
2017-09-29T21:40:22.900Z,89.70
2017-09-29T21:42:54.851Z,90.00
2017-09-29T21:45:26.368Z,89.20
2017-09-29T21:47:59.276Z,89.30
2017-09-29T21:50:30.347Z,89.30
2017-09-29T21:53:02.238Z,90.30
2017-09-29T21:55:33.285Z,90.30
2017-09-29T21:58:04.399Z,90.10
2017-09-29T22:00:35.886Z,90.70
2017-09-29T22:03:07.518Z,90.30
2017-09-29T22:05:39.118Z,90.60
2017-09-29T22:08:11.017Z,90.50
2017-09-29T22:10:42.605Z,91.00
2017-09-29T22:13:14.216Z,91.20
2017-09-29T22:15:45.717Z,91.20
2017-09-29T22:18:17.657Z,91.20
2017-09-29T22:20:49.533Z,91.50
2017-09-29T22:23:21.217Z,91.30
2017-09-29T22:25:52.589Z,91.30
2017-09-29T22:28:24.004Z,91.50
2017-09-29T22:30:55.006Z,91.90
2017-09-29T22:33:27.134Z,91.20
2017-09-29T22:35:58.162Z,91.20
2017-09-29T22:38:29.511Z,91.30
2017-09-29T22:41:00.514Z,91.50
2017-09-29T22:43:32.241Z,91.50
2017-09-29T22:46:04.537Z,91.60
2017-09-29T22:48:36.220Z,91.60
2017-09-29T22:51:07.043Z,91.70
2017-09-29T22:53:38.749Z,91.70
2017-09-29T22:56:10.221Z,91.90
2017-09-29T22:58:41.423Z,91.90
2017-09-29T23:01:12.543Z,91.80
2017-09-29T23:03:43.377Z,92.10
2017-09-29T23:06:14.365Z,91.90
2017-09-29T23:08:45.719Z,92.00
2017-09-29T23:11:16.597Z,91.90
2017-09-29T23:13:48.286Z,92.00
2017-09-29T23:16:19.431Z,92.00
2017-09-29T23:18:51.551Z,92.10
2017-09-29T23:21:22.555Z,92.10
2017-09-29T23:23:54.408Z,92.00
2017-09-29T23:26:26.463Z,92.20
2017-09-29T23:28:57.417Z,92.50
2017-09-29T23:31:28.620Z,92.40
2017-09-29T23:33:59.853Z,92.50
2017-09-29T23:36:31.141Z,92.50
2017-09-29T23:39:02.327Z,92.70
2017-09-29T23:41:33.267Z,92.70
2017-09-29T23:44:05.072Z,92.90
2017-09-29T23:46:35.820Z,93.10
2017-09-29T23:49:06.554Z,93.10
2017-09-29T23:51:37.252Z,93.30
2017-09-29T23:54:08.328Z,93.30
2017-09-29T23:56:39.207Z,93.30
2017-09-29T23:59:10.701Z,93.30
